Time;durP1;ratioP1;P1;durP2;ratioP2;P2;SDS_P1;SDS_P2;PMS_P1;PMS_P2;Temp;Humidity;BMP_temperature;BMP_pressure;BME280_temperature;BME280_humidity;BME280_pressure;Samples;Min_cycle;Max_cycle;Signal;HPM_P1;HPM_P2
2023/02/12 00:01:38;;;;;;;15.30;8.27;;;8.10;1.00;;;;;;6072127;23;20222;-91
2023/02/12 00:04:15;;;;;;;14.70;8.85;;;8.00;1.00;;;;;;6108176;23;20253;-90
2023/02/12 00:07:09;;;;;;;17.23;8.88;;;8.00;1.00;;;;;;6086625;23;20255;-90
2023/02/12 00:09:37;;;;;;;18.33;8.65;;;8.00;1.00;;;;;;6029297;23;20237;-90
2023/02/12 00:12:08;;;;;;;17.75;8.77;;;8.00;1.00;;;;;;6108648;23;20274;-90
2023/02/12 00:14:38;;;;;;;18.85;8.52;;;8.00;1.00;;;;;;6098822;23;20211;-90
2023/02/12 00:17:16;;;;;;;14.30;7.80;;;8.00;1.00;;;;;;6117839;23;20242;-90
2023/02/12 00:19:47;;;;;;;17.65;8.43;;;8.00;1.00;;;;;;6091286;23;20438;-89
2023/02/12 00:22:44;;;;;;;13.57;8.40;;;8.00;1.00;;;;;;6115200;23;20211;-91
2023/02/12 00:28:18;;;;;;;13.63;7.85;;;8.00;1.00;;;;;;6009700;23;20435;-91
2023/02/12 00:31:17;;;;;;;;;;;;;;;;;;;;;
2023/02/12 00:34:07;;;;;;;14.68;7.25;;;7.90;1.00;;;;;;6011676;23;42956;-90
2023/02/12 00:36:36;;;;;;;15.07;8.33;;;7.90;1.00;;;;;;6006050;23;20356;-89
2023/02/12 00:39:29;;;;;;;17.65;9.68;;;7.90;1.00;;;;;;6023168;23;20374;-91
2023/02/12 00:41:58;;;;;;;15.85;7.55;;;7.90;1.00;;;;;;6040912;23;20277;-91
2023/02/12 00:44:27;;;;;;;15.75;8.45;;;7.90;1.00;;;;;;6120718;23;20218;-92
2023/02/12 00:47:02;;;;;;;16.08;8.40;;;7.90;1.00;;;;;;6131062;23;20680;-90
2023/02/12 00:49:50;;;;;;;20.20;8.02;;;7.90;1.00;;;;;;6100290;23;20220;-91
2023/02/12 00:52:17;;;;;;;13.07;7.03;;;7.90;1.00;;;;;;6108047;23;20307;-92
2023/02/12 00:54:58;;;;;;;15.80;6.80;;;7.90;1.00;;;;;;6086827;23;20390;-89
2023/02/12 00:57:29;;;;;;;12.70;7.03;;;7.80;1.00;;;;;;6102818;23;20213;-90
2023/02/12 01:00:26;;;;;;;17.70;7.60;;;7.80;1.00;;;;;;6058911;23;20415;-90
2023/02/12 01:08:37;;;;;;;15.30;7.43;;;7.90;1.00;;;;;;6124893;23;20264;-90
2023/02/12 01:11:18;;;;;;;11.07;6.40;;;7.90;1.00;;;;;;6117834;23;20224;-91
2023/02/12 01:17:01;;;;;;;14.63;7.97;;;8.00;1.00;;;;;;6088694;23;20283;-91
2023/02/12 01:19:29;;;;;;;17.65;6.70;;;8.00;1.00;;;;;;6084032;23;20261;-90
2023/02/12 01:22:08;;;;;;;14.27;7.03;;;8.00;1.00;;;;;;6106441;23;20201;-91
2023/02/12 01:24:57;;;;;;;10.67;6.80;;;8.00;1.00;;;;;;6094000;23;20996;-89
2023/02/12 01:27:39;;;;;;;17.10;7.30;;;8.00;1.00;;;;;;6125398;23;20411;-90
2023/02/12 01:30:09;;;;;;;20.50;7.10;;;7.90;1.00;;;;;;6109562;23;21052;-91
2023/02/12 01:35:55;;;;;;;13.70;6.90;;;8.00;1.00;;;;;;6097603;23;20219;-89
2023/02/12 01:38:35;;;;;;;13.60;6.93;;;7.90;1.00;;;;;;6107618;23;20209;-92
2023/02/12 01:44:25;;;;;;;15.03;6.60;;;7.90;1.00;;;;;;6087741;23;20253;-90
2023/02/12 01:46:58;;;;;;;17.27;6.70;;;7.80;1.00;;;;;;6107138;23;20398;-90
2023/02/12 01:49:38;;;;;;;17.75;7.88;;;7.80;1.00;;;;;;6113192;23;20289;-91
2023/02/12 01:52:15;;;;;;;14.98;6.38;;;7.80;1.00;;;;;;6107332;23;20225;-91
2023/02/12 01:57:55;;;;;;;16.00;7.40;;;7.80;1.00;;;;;;6123830;23;20455;-91
2023/02/12 02:00:40;;;;;;;;;;;;;;;;;;;;;
2023/02/12 02:03:27;;;;;;;15.47;7.43;;;7.80;1.00;;;;;;6117610;23;49616;-91
2023/02/12 02:06:15;;;;;;;15.77;6.27;;;7.80;1.00;;;;;;6110290;23;20396;-91
2023/02/12 02:08:56;;;;;;;14.48;7.43;;;7.80;1.00;;;;;;6104285;23;20396;-91
2023/02/12 02:14:36;;;;;;;18.45;6.68;;;7.90;1.00;;;;;;6107143;23;20214;-91
2023/02/12 02:17:37;;;;;;;12.80;7.10;;;7.90;1.00;;;;;;6086589;23;20204;-91
2023/02/12 02:20:38;;;;;;;11.77;5.40;;;7.90;1.00;;;;;;6106690;23;20424;-91
2023/02/12 02:23:46;;;;;;;14.98;6.22;;;8.00;1.00;;;;;;6087352;23;20466;-90
2023/02/12 02:26:49;;;;;;;19.48;7.55;;;8.00;1.00;;;;;;6087291;23;20255;-91
2023/02/12 02:29:50;;;;;;;14.27;6.00;;;8.00;1.00;;;;;;6099873;23;20217;-91
2023/02/12 02:32:25;;;;;;;15.80;6.40;;;8.00;1.00;;;;;;6033333;23;20438;-90
2023/02/12 02:35:27;;;;;;;16.50;6.85;;;7.90;1.00;;;;;;6112762;23;20222;-90
2023/02/12 02:38:13;;;;;;;12.82;5.60;;;7.90;1.00;;;;;;6103175;23;20795;-90
2023/02/12 02:41:26;;;;;;;14.55;6.65;;;7.80;1.00;;;;;;6092622;23;20299;-89
2023/02/12 02:44:12;;;;;;;17.58;5.72;;;7.80;1.00;;;;;;6103839;23;20300;-91
2023/02/12 02:46:46;;;;;;;18.98;6.03;;;7.80;1.00;;;;;;6056569;23;20221;-91
2023/02/12 02:49:36;;;;;;;12.65;6.03;;;7.80;1.00;;;;;;6117907;23;20272;-91
2023/02/12 02:52:34;;;;;;;16.77;6.57;;;7.80;1.00;;;;;;6118081;23;20215;-89
2023/02/12 02:55:14;;;;;;;19.80;7.85;;;7.80;1.00;;;;;;6029938;23;20257;-91
2023/02/12 02:58:02;;;;;;;;;;;;;;;;;;;;;
2023/02/12 03:00:47;;;;;;;12.93;6.13;;;7.70;1.00;;;;;;6087598;23;42329;-90
2023/02/12 03:03:38;;;;;;;17.77;7.35;;;7.80;1.00;;;;;;6096863;23;20210;-90
2023/02/12 03:06:18;;;;;;;15.32;7.05;;;7.70;1.00;;;;;;6112021;23;20293;-90
2023/02/12 03:09:06;;;;;;;;;;;;;;;;;;;;;
2023/02/12 03:11:41;;;;;;;18.27;6.80;;;7.80;1.00;;;;;;6087258;23;40827;-90
2023/02/12 03:14:15;;;;;;;23.33;7.27;;;7.70;1.00;;;;;;6108389;23;20960;-89
2023/02/12 03:16:51;;;;;;;16.25;6.80;;;7.70;1.00;;;;;;6095919;23;20449;-91
2023/02/12 03:19:26;;;;;;;17.02;7.03;;;7.70;1.00;;;;;;6101876;23;20223;-91
2023/02/12 03:22:55;;;;;;;;;;;;;;;;;;;;;
2023/02/12 03:25:35;;;;;;;17.38;7.05;;;7.80;1.00;;;;;;6099534;23;20786;-89
2023/02/12 03:28:16;;;;;;;18.95;7.30;;;7.80;1.00;;;;;;6105578;23;20288;-90
2023/02/12 03:31:02;;;;;;;;;;;;;;;;;;;;;
2023/02/12 03:33:36;;;;;;;11.75;6.90;;;7.70;1.00;;;;;;6089299;23;39272;-90
2023/02/12 03:36:26;;;;;;;19.10;8.73;;;7.70;1.00;;;;;;6106638;23;20201;-89
2023/02/12 03:39:05;;;;;;;18.38;6.85;;;7.70;1.00;;;;;;6102928;23;20940;-91
2023/02/12 03:45:05;;;;;;;18.40;7.35;;;7.80;1.00;;;;;;6085496;23;20252;-90
2023/02/12 03:47:46;;;;;;;15.50;7.40;;;7.80;1.00;;;;;;6093308;23;20308;-89
2023/02/12 03:50:28;;;;;;;17.70;7.57;;;7.80;1.00;;;;;;6119827;23;20505;-92
2023/02/12 03:53:00;;;;;;;14.18;7.03;;;7.80;1.00;;;;;;6102688;23;20247;-91
2023/02/12 03:55:29;;;;;;;17.95;7.53;;;7.80;1.00;;;;;;6091402;23;20832;-91
2023/02/12 03:58:16;;;;;;;18.17;7.75;;;7.80;1.00;;;;;;6086593;23;20243;-91
2023/02/12 04:00:57;;;;;;;17.80;7.95;;;7.80;1.00;;;;;;6086644;23;20222;-91
2023/02/12 04:03:31;;;;;;;18.33;7.60;;;7.80;1.00;;;;;;6133296;23;20305;-91
2023/02/12 04:06:14;;;;;;;15.30;8.13;;;7.80;1.00;;;;;;6122678;23;20245;-90
2023/02/12 04:08:43;;;;;;;16.73;9.73;;;7.80;1.00;;;;;;6145861;23;20425;-90
2023/02/12 04:11:46;;;;;;;19.38;7.25;;;7.80;1.00;;;;;;6136248;23;20391;-90
2023/02/12 04:14:31;;;;;;;23.15;8.75;;;7.70;1.00;;;;;;6141496;23;20665;-88
2023/02/12 04:17:05;;;;;;;16.70;7.70;;;7.70;1.00;;;;;;6092125;23;20235;-91
2023/02/12 04:19:59;;;;;;;15.45;7.60;;;7.70;1.00;;;;;;6131417;23;20960;-91
2023/02/12 04:22:47;;;;;;;19.05;9.00;;;7.70;1.00;;;;;;6137363;23;20297;-89
2023/02/12 04:25:37;;;;;;;20.63;7.80;;;7.70;1.00;;;;;;6138938;23;20273;-92
2023/02/12 04:28:16;;;;;;;23.58;8.80;;;7.70;1.00;;;;;;6133376;23;20713;-90
2023/02/12 04:31:09;;;;;;;24.40;8.67;;;7.60;1.00;;;;;;6142509;23;20617;-90
2023/02/12 04:33:46;;;;;;;14.77;6.82;;;7.60;1.00;;;;;;6110918;23;20453;-91
2023/02/12 04:36:28;;;;;;;25.00;8.13;;;7.60;1.00;;;;;;6096331;23;20223;-91
2023/02/12 04:39:09;;;;;;;15.13;7.20;;;7.60;1.00;;;;;;6133640;23;20207;-91
2023/02/12 04:41:40;;;;;;;16.27;7.63;;;7.50;1.00;;;;;;6129583;23;20231;-91
2023/02/12 04:44:38;;;;;;;;;;;;;;;;;;;;;
2023/02/12 04:47:21;;;;;;;;;;;;;;;;;;;;;
2023/02/12 04:49:57;;;;;;;20.67;8.27;;;7.30;1.00;;;;;;6114551;23;37927;-90
2023/02/12 04:52:39;;;;;;;16.48;9.02;;;7.20;1.00;;;;;;6130871;23;20216;-91
2023/02/12 04:57:53;;;;;;;24.00;7.97;;;7.10;1.00;;;;;;6115435;23;20220;-91
2023/02/12 07:05:37;;;;;;;12.77;5.33;;;7.80;1.00;;;;;;6128827;23;21976;-85
2023/02/12 08:14:40;;;;;;;14.37;6.00;;;8.80;1.00;;;;;;6218023;22;20394;-86
2023/02/12 08:25:18;;;;;;;14.13;6.20;;;9.10;1.00;;;;;;6086924;23;20424;-80
2023/02/12 08:27:49;;;;;;;15.50;6.10;;;9.10;1.00;;;;;;6125994;23;20215;-81
2023/02/12 08:30:20;;;;;;;12.40;5.43;;;9.20;1.00;;;;;;6163739;22;20414;-81
2023/02/12 08:32:49;;;;;;;14.80;7.17;;;9.20;1.00;;;;;;6189040;22;22830;-80
2023/02/12 08:35:19;;;;;;;14.27;6.60;;;9.20;1.00;;;;;;6223209;23;21123;-81
2023/02/12 08:37:46;;;;;;;14.37;6.30;;;9.30;1.00;;;;;;6190823;23;20440;-81
2023/02/12 08:40:16;;;;;;;17.10;7.03;;;9.40;1.00;;;;;;6193243;22;20418;-80
2023/02/12 08:42:49;;;;;;;15.60;6.27;;;9.40;1.00;;;;;;6182253;22;20892;-80
2023/02/12 08:45:20;;;;;;;16.23;6.80;;;9.30;1.00;;;;;;6191007;23;20447;-80
2023/02/12 08:47:48;;;;;;;19.17;6.07;;;9.40;1.00;;;;;;6174050;23;20404;-80
2023/02/12 08:50:17;;;;;;;16.87;5.87;;;9.50;1.00;;;;;;6204982;22;20432;-80
2023/02/12 08:52:50;;;;;;;13.67;5.90;;;9.50;1.00;;;;;;6189082;23;20445;-80
2023/02/12 08:55:20;;;;;;;15.60;6.20;;;9.50;1.00;;;;;;6190099;23;20429;-80
2023/02/12 08:58:06;;;;;;;15.97;6.40;;;9.60;1.00;;;;;;6207527;23;20480;-81
2023/02/12 09:00:42;;;;;;;14.07;5.07;;;9.60;1.00;;;;;;6178222;23;21078;-80
2023/02/12 09:03:10;;;;;;;19.30;6.10;;;9.60;1.00;;;;;;6208942;23;20443;-79
2023/02/12 09:05:49;;;;;;;15.70;6.30;;;9.60;1.00;;;;;;6206877;23;20460;-79
2023/02/12 09:08:21;;;;;;;13.37;5.10;;;9.60;1.00;;;;;;6214758;22;20443;-79
2023/02/12 09:11:11;;;;;;;16.17;6.33;;;9.60;1.00;;;;;;6193330;22;20887;-82
2023/02/12 09:13:40;;;;;;;19.80;6.60;;;9.60;1.00;;;;;;6186910;23;20424;-79
2023/02/12 09:16:09;;;;;;;16.50;5.90;;;9.70;1.00;;;;;;6186302;23;20503;-76
2023/02/12 09:21:28;;;;;;;16.97;5.33;;;9.80;1.00;;;;;;6178571;22;20448;-79
2023/02/12 09:23:58;;;;;;;18.30;6.07;;;9.70;1.00;;;;;;6206651;22;20503;-80
2023/02/12 09:26:43;;;;;;;14.13;6.70;;;9.70;1.00;;;;;;6195684;22;20432;-79
2023/02/12 09:29:10;;;;;;;15.17;5.80;;;9.70;1.00;;;;;;6231224;22;20413;-81
2023/02/12 09:31:49;;;;;;;14.57;5.17;;;9.70;1.00;;;;;;6170961;23;20397;-82
2023/02/12 09:34:29;;;;;;;15.83;6.53;;;9.60;1.00;;;;;;6201800;22;20385;-82
2023/02/12 09:36:58;;;;;;;15.70;6.40;;;9.60;1.00;;;;;;6221356;22;20432;-83
2023/02/12 09:39:49;;;;;;;13.53;5.40;;;9.60;1.00;;;;;;6201835;23;20858;-80
2023/02/12 09:42:27;;;;;;;14.00;5.60;;;9.90;1.00;;;;;;6113218;23;20476;-81
2023/02/12 09:45:08;;;;;;;10.77;5.50;;;10.10;1.00;;;;;;6217559;22;20404;-82
2023/02/12 09:47:47;;;;;;;12.97;6.30;;;10.30;1.00;;;;;;6214608;23;20436;-82
2023/02/12 09:50:35;;;;;;;11.10;5.83;;;10.30;1.00;;;;;;6208424;23;20397;-82
2023/02/12 09:53:27;;;;;;;9.73;5.40;;;10.40;1.00;;;;;;6194476;23;20420;-82
2023/02/12 09:56:00;;;;;;;16.10;5.43;;;10.50;1.00;;;;;;6117937;23;20462;-81
2023/02/12 09:58:38;;;;;;;14.83;5.70;;;10.60;1.00;;;;;;6195736;22;20400;-82
2023/02/12 10:01:18;;;;;;;11.23;5.50;;;10.60;1.00;;;;;;6205132;22;20382;-83
2023/02/12 10:03:50;;;;;;;9.20;4.10;;;10.70;1.00;;;;;;6212048;22;20428;-83
2023/02/12 10:06:21;;;;;;;19.43;6.10;;;10.70;1.00;;;;;;6226950;23;21147;-83
2023/02/12 10:09:30;;;;;;;;;;;;;;;;;;;;;
2023/02/12 10:12:30;;;;;;;15.73;5.77;;;10.80;1.00;;;;;;6185774;23;20385;-82
2023/02/12 10:15:26;;;;;;;16.50;6.13;;;10.80;1.00;;;;;;6210955;22;20501;-81
2023/02/12 10:18:07;;;;;;;11.67;5.33;;;10.70;1.00;;;;;;6185843;23;20496;-82
2023/02/12 10:21:02;;;;;;;11.60;6.20;;;10.50;1.00;;;;;;6189507;22;20414;-82
2023/02/12 10:23:46;;;;;;;14.70;6.97;;;10.40;1.00;;;;;;6208873;22;20408;-81
2023/02/12 10:26:38;;;;;;;13.20;7.27;;;10.30;1.00;;;;;;6196550;23;20456;-82
2023/02/12 10:29:17;;;;;;;14.47;8.23;;;10.20;1.00;;;;;;6212626;22;20926;-81
2023/02/12 10:32:11;;;;;;;;;;;;;;;;;;;;;
2023/02/12 10:34:50;;;;;;;13.03;8.40;;;10.10;1.00;;;;;;6188388;22;38997;-81
2023/02/12 10:37:38;;;;;;;17.20;9.03;;;10.10;1.00;;;;;;6218999;22;20446;-81
2023/02/12 10:40:38;;;;;;;15.00;8.70;;;10.30;1.00;;;;;;6216174;22;20421;-82
2023/02/12 10:43:19;;;;;;;13.63;7.67;;;10.50;1.00;;;;;;6078483;23;20440;-81
2023/02/12 10:45:49;;;;;;;12.27;7.80;;;10.70;1.00;;;;;;6125422;22;22719;-82
2023/02/12 10:48:41;;;;;;;14.03;7.80;;;10.80;1.00;;;;;;6236132;22;20411;-82
2023/02/12 10:51:47;;;;;;;18.30;9.07;;;10.80;1.00;;;;;;6184104;23;21113;-83
2023/02/12 10:55:00;;;;;;;;;;;;;;;;;;;;;
2023/02/12 10:57:37;;;;;;;13.43;7.37;;;10.70;1.00;;;;;;6162298;22;50828;-82
2023/02/12 11:00:26;;;;;;;13.80;7.83;;;10.70;1.00;;;;;;6215803;22;20401;-83
2023/02/12 11:03:33;;;;;;;13.97;7.27;;;10.50;1.00;;;;;;6195501;23;21100;-83
2023/02/12 11:06:14;;;;;;;14.30;8.33;;;10.40;1.00;;;;;;6217887;23;20437;-81
2023/02/12 11:08:43;;;;;;;12.87;7.40;;;10.20;1.00;;;;;;6229621;23;20393;-82
2023/02/12 11:11:21;;;;;;;11.17;7.50;;;10.10;1.00;;;;;;6206379;22;20489;-83
2023/02/12 11:13:57;;;;;;;13.10;9.13;;;9.90;1.00;;;;;;6214754;22;20412;-81
2023/02/12 11:16:49;;;;;;;17.13;8.00;;;9.80;1.00;;;;;;6236829;22;20431;-82
2023/02/12 11:19:34;;;;;;;16.60;8.70;;;9.70;1.00;;;;;;6230562;23;20439;-82
2023/02/12 11:22:13;;;;;;;14.33;8.40;;;9.60;1.00;;;;;;6218027;23;20507;-84
2023/02/12 11:24:44;;;;;;;14.67;8.90;;;9.60;1.00;;;;;;6230730;23;20424;-83
2023/02/12 11:27:27;;;;;;;13.03;7.20;;;9.70;1.00;;;;;;6231073;23;21013;-81
2023/02/12 11:30:24;;;;;;;12.80;8.53;;;9.70;1.00;;;;;;6194619;23;20413;-81
2023/02/12 11:32:54;;;;;;;17.03;9.40;;;9.70;1.00;;;;;;6210530;23;20402;-82
2023/02/12 11:35:27;;;;;;;16.60;8.70;;;9.70;1.00;;;;;;6231856;23;20419;-82
2023/02/12 11:37:57;;;;;;;14.83;7.27;;;9.60;1.00;;;;;;6194726;23;20429;-84
2023/02/12 11:40:32;;;;;;;13.93;7.47;;;9.50;1.00;;;;;;6234545;23;20468;-83
2023/02/12 11:43:11;;;;;;;13.17;7.93;;;9.50;1.00;;;;;;6194764;23;20396;-82
2023/02/12 11:45:45;;;;;;;13.77;8.20;;;9.50;1.00;;;;;;6227674;23;20405;-84
2023/02/12 11:48:21;;;;;;;13.67;8.50;;;9.30;1.00;;;;;;6232718;23;20397;-83
2023/02/12 11:51:01;;;;;;;12.40;8.40;;;9.30;1.00;;;;;;6209523;23;20401;-82
2023/02/12 11:53:42;;;;;;;12.38;8.43;;;9.40;1.00;;;;;;6211662;23;20413;-81
2023/02/12 11:56:14;;;;;;;12.37;8.17;;;9.70;1.00;;;;;;6198348;23;20671;-83
2023/02/12 11:58:43;;;;;;;12.40;8.10;;;10.00;1.00;;;;;;6236847;22;20459;-82
2023/02/12 12:01:21;;;;;;;15.83;8.73;;;10.20;1.00;;;;;;6232713;23;20428;-82
2023/02/12 12:03:55;;;;;;;15.43;7.23;;;10.30;1.00;;;;;;6234208;23;20413;-82
2023/02/12 12:06:29;;;;;;;13.03;7.60;;;10.20;1.00;;;;;;6234597;23;20389;-83
2023/02/12 12:09:04;;;;;;;13.20;7.53;;;10.10;1.00;;;;;;6218304;23;20429;-82
2023/02/12 12:11:54;;;;;;;11.03;7.00;;;9.90;1.00;;;;;;6231860;23;20417;-81
2023/02/12 12:14:31;;;;;;;15.33;8.07;;;9.80;1.00;;;;;;6231735;23;20464;-82
2023/02/12 12:20:10;;;;;;;11.63;7.47;;;9.60;1.00;;;;;;6149003;22;20459;-83
2023/02/12 12:23:03;;;;;;;;;;;;;;;;;;;;;
2023/02/12 12:28:34;;;;;;;10.00;6.40;;;9.60;1.00;;;;;;6233390;23;20909;-83
2023/02/12 12:31:22;;;;;;;16.30;6.90;;;10.10;1.00;;;;;;6234699;23;20948;-82
2023/02/12 12:34:01;;;;;;;14.27;7.13;;;10.50;1.00;;;;;;6223656;22;20761;-84
2023/02/12 12:37:02;;;;;;;9.70;6.27;;;10.60;1.00;;;;;;6232278;23;20396;-82
2023/02/12 12:43:03;;;;;;;13.60;6.87;;;10.30;1.00;;;;;;6230300;23;20437;-82
2023/02/12 12:46:12;;;;;;;10.80;6.60;;;11.20;1.00;;;;;;6223075;22;20424;-82
2023/02/12 12:49:21;;;;;;;13.57;7.80;;;12.00;1.00;;;;;;6233546;23;21307;-81
2023/02/12 12:52:15;;;;;;;19.13;12.57;;;12.10;1.00;;;;;;6195430;23;20409;-83
2023/02/12 12:55:05;;;;;;;13.60;6.90;;;11.70;1.00;;;;;;6233065;23;21261;-82
2023/02/12 12:57:53;;;;;;;13.47;8.13;;;11.40;1.00;;;;;;6208605;23;20417;-80
2023/02/12 13:00:51;;;;;;;13.10;7.77;;;11.80;1.00;;;;;;6232999;23;20397;-82
2023/02/12 13:04:04;;;;;;;13.33;8.70;;;11.90;1.00;;;;;;6232766;23;20500;-82
2023/02/12 13:06:52;;;;;;;12.30;7.90;;;11.80;1.00;;;;;;6230611;23;20505;-84
2023/02/12 13:09:49;;;;;;;;;;;;;;;;;;;;;
2023/02/12 13:15:42;;;;;;;12.40;10.77;;;11.90;1.00;;;;;;6214225;23;20424;-82
2023/02/12 13:18:24;;;;;;;15.33;8.40;;;11.70;1.00;;;;;;6233400;23;20396;-83
2023/02/12 13:21:11;;;;;;;11.43;7.77;;;11.60;1.00;;;;;;6231437;23;20409;-83
2023/02/12 13:24:03;;;;;;;12.93;8.00;;;11.40;1.00;;;;;;6232405;23;20424;-83
2023/02/12 13:26:52;;;;;;;13.50;6.37;;;11.30;1.00;;;;;;6191331;23;20377;-83
2023/02/12 13:29:42;;;;;;;9.83;6.90;;;11.10;1.00;;;;;;6162580;23;20409;-84
2023/02/12 13:32:22;;;;;;;9.23;5.60;;;11.10;1.00;;;;;;6205420;23;20409;-85
2023/02/12 13:35:11;;;;;;;10.90;5.70;;;11.00;1.00;;;;;;6228877;23;20428;-84
2023/02/12 13:38:04;;;;;;;14.13;7.60;;;10.90;1.00;;;;;;6227600;23;20404;-84
2023/02/12 13:40:33;;;;;;;9.80;5.47;;;10.90;1.00;;;;;;6051285;23;21152;-83
2023/02/12 13:43:15;;;;;;;10.33;6.33;;;11.40;1.00;;;;;;6079249;23;21125;-83
2023/02/12 13:45:50;;;;;;;9.90;6.20;;;12.00;1.00;;;;;;6226525;23;20432;-85
2023/02/12 13:51:37;;;;;;;10.77;6.73;;;12.20;1.00;;;;;;6186062;23;20434;-84
2023/02/12 13:54:29;;;;;;;9.60;6.03;;;12.10;1.00;;;;;;6191529;23;20429;-82
2023/02/12 13:57:17;;;;;;;7.83;4.47;;;12.00;1.00;;;;;;6154153;23;20415;-85
2023/02/12 13:59:49;;;;;;;11.10;5.83;;;12.00;1.00;;;;;;6157124;23;20467;-83
2023/02/12 14:02:50;;;;;;;11.33;5.83;;;12.10;1.00;;;;;;6197691;22;20405;-81
2023/02/12 14:05:39;;;;;;;9.57;5.43;;;12.10;1.00;;;;;;6212544;23;20425;-83
2023/02/12 14:08:37;;;;;;;8.93;5.33;;;12.10;1.00;;;;;;6216054;23;20390;-82
2023/02/12 14:11:19;;;;;;;8.80;5.40;;;12.10;1.00;;;;;;6217612;23;20433;-83
2023/02/12 14:13:57;;;;;;;9.27;5.50;;;12.00;1.00;;;;;;6215755;23;20437;-84
2023/02/12 14:16:49;;;;;;;8.67;4.67;;;12.00;1.00;;;;;;6202388;23;20418;-83
2023/02/12 14:19:38;;;;;;;13.03;6.30;;;11.70;1.00;;;;;;6182357;23;20417;-84
2023/02/12 14:22:48;;;;;;;9.23;5.80;;;11.50;1.00;;;;;;6195711;23;20449;-82
2023/02/12 14:25:46;;;;;;;7.80;4.63;;;11.40;1.00;;;;;;6180944;23;20419;-82
2023/02/12 14:28:33;;;;;;;10.83;7.03;;;11.30;1.00;;;;;;6143243;22;20412;-83
2023/02/12 14:31:46;;;;;;;;;;;;;;;;;;;;;
2023/02/12 14:34:48;;;;;;;10.10;6.37;;;11.00;1.00;;;;;;6139301;23;50732;-83
2023/02/12 14:37:38;;;;;;;7.30;4.10;;;11.00;1.00;;;;;;6191279;23;20442;-82
2023/02/12 14:40:31;;;;;;;9.23;5.03;;;11.10;1.00;;;;;;6177092;23;20416;-83
2023/02/12 14:43:05;;;;;;;9.33;5.00;;;11.10;1.00;;;;;;6187596;23;20481;-82
2023/02/12 14:45:39;;;;;;;9.63;4.53;;;11.10;1.00;;;;;;6190598;23;20413;-82
2023/02/12 14:48:47;;;;;;;10.07;5.63;;;11.20;1.00;;;;;;6169301;23;20576;-83
2023/02/12 14:51:23;;;;;;;8.00;4.97;;;11.10;1.00;;;;;;6208818;22;20441;-82
2023/02/12 14:53:57;;;;;;;6.47;3.90;;;11.00;1.00;;;;;;6146149;23;20414;-82
2023/02/12 14:56:47;;;;;;;8.73;5.27;;;11.00;1.00;;;;;;6198137;23;20457;-82
2023/02/12 14:59:21;;;;;;;9.37;6.20;;;11.00;1.00;;;;;;6172970;23;20438;-83
2023/02/12 15:01:57;;;;;;;9.73;5.20;;;11.00;1.00;;;;;;6174016;23;21491;-82
2023/02/12 15:04:28;;;;;;;7.23;5.10;;;10.80;1.00;;;;;;6151410;23;20453;-82
2023/02/12 15:07:52;;;;;;;;;;;;;;;;;;;;;
2023/02/12 15:10:31;;;;;;;10.30;5.80;;;10.70;1.00;;;;;;6165489;23;49024;-81
2023/02/12 15:13:18;;;;;;;8.70;5.83;;;10.80;1.00;;;;;;6156789;23;20769;-85
2023/02/12 15:16:09;;;;;;;9.50;6.00;;;10.70;1.00;;;;;;6175962;23;20417;-82
2023/02/12 15:18:51;;;;;;;10.40;5.40;;;10.60;1.00;;;;;;6162510;23;21124;-82
2023/02/12 15:21:27;;;;;;;13.50;5.73;;;10.50;1.00;;;;;;6216843;23;20544;-82
2023/02/12 15:24:20;;;;;;;7.97;5.40;;;10.50;1.00;;;;;;6174262;23;20426;-84
2023/02/12 15:26:54;;;;;;;10.73;5.20;;;10.40;1.00;;;;;;6154289;23;20453;-82
2023/02/12 15:29:27;;;;;;;8.27;5.40;;;10.40;1.00;;;;;;6184594;23;20421;-83
2023/02/12 15:32:09;;;;;;;8.87;5.53;;;10.30;1.00;;;;;;6174457;23;20409;-81
2023/02/12 15:34:41;;;;;;;10.80;5.80;;;10.30;1.00;;;;;;6176016;23;20413;-81
2023/02/12 15:37:20;;;;;;;10.70;5.50;;;10.30;1.00;;;;;;6192902;23;20461;-81
2023/02/12 15:39:54;;;;;;;11.27;5.47;;;10.20;1.00;;;;;;6213362;23;20428;-80
2023/02/12 15:42:31;;;;;;;9.10;5.70;;;10.20;1.00;;;;;;6201200;23;20399;-82
2023/02/12 15:45:31;;;;;;;12.07;6.63;;;10.10;1.00;;;;;;6183788;23;20449;-82
2023/02/12 15:48:07;;;;;;;7.33;4.87;;;10.00;1.00;;;;;;6224734;23;21252;-82
2023/02/12 15:51:06;;;;;;;10.77;6.10;;;10.00;1.00;;;;;;6184756;23;20454;-82
2023/02/12 15:53:57;;;;;;;7.87;5.10;;;9.90;1.00;;;;;;6164407;23;20401;-86
2023/02/12 15:56:27;;;;;;;11.40;6.77;;;9.90;1.00;;;;;;6176115;23;20400;-84
2023/02/12 15:59:01;;;;;;;10.57;6.43;;;9.80;1.00;;;;;;6179618;22;20539;-85
2023/02/12 16:01:37;;;;;;;11.30;6.30;;;9.80;1.00;;;;;;6182589;23;20420;-85
2023/02/12 16:04:11;;;;;;;16.03;7.87;;;9.90;1.00;;;;;;6228137;23;20791;-84
2023/02/12 16:06:40;;;;;;;10.60;5.97;;;10.00;1.00;;;;;;6174341;23;20411;-83
2023/02/12 16:09:18;;;;;;;18.17;9.50;;;9.90;1.00;;;;;;6230271;23;20437;-83
2023/02/12 16:11:59;;;;;;;8.27;5.73;;;9.90;1.00;;;;;;6158818;22;20433;-84
2023/02/12 16:14:34;;;;;;;10.33;6.87;;;9.90;1.00;;;;;;6186463;22;20405;-83
2023/02/12 16:17:01;;;;;;;9.90;6.10;;;9.90;1.00;;;;;;6186033;23;20456;-84
2023/02/12 16:19:31;;;;;;;12.13;6.50;;;9.90;1.00;;;;;;6174806;22;20418;-86
2023/02/12 16:22:09;;;;;;;9.93;6.03;;;9.80;1.00;;;;;;6202427;23;20484;-84
2023/02/12 16:24:48;;;;;;;8.43;5.30;;;9.80;1.00;;;;;;6153644;23;20867;-82
2023/02/12 16:27:21;;;;;;;9.90;6.47;;;9.70;1.00;;;;;;6178753;22;20444;-83
2023/02/12 16:30:00;;;;;;;11.07;5.10;;;9.70;1.00;;;;;;6139347;23;20826;-85
2023/02/12 16:32:38;;;;;;;8.53;4.70;;;9.70;1.00;;;;;;6196308;22;20521;-83
2023/02/12 16:35:30;;;;;;;7.50;3.97;;;9.70;1.00;;;;;;6183619;23;20436;-85
2023/02/12 16:38:37;;;;;;;;;;;;;;;;;;;;;
2023/02/12 16:44:41;;;;;;;11.70;4.87;;;9.70;1.00;;;;;;6173574;23;20475;-87
2023/02/12 17:46:08;;;;;;;7.70;4.67;;;9.50;1.00;;;;;;6160500;22;20238;-89
2023/02/12 17:49:12;;;;;;;7.13;4.43;;;9.60;1.00;;;;;;6200943;22;20395;-83
2023/02/12 17:54:38;;;;;;;11.50;3.93;;;9.50;1.00;;;;;;6270899;22;20381;-86
2023/02/12 17:57:11;;;;;;;7.53;4.37;;;9.40;1.00;;;;;;6324707;22;21248;-87
2023/02/12 17:59:40;;;;;;;6.97;5.05;;;9.40;1.00;;;;;;6297822;22;20448;-85
2023/02/12 18:02:20;;;;;;;10.10;4.80;;;9.50;1.00;;;;;;6265471;22;20202;-85
2023/02/12 18:04:50;;;;;;;9.60;4.63;;;9.50;1.00;;;;;;6275072;22;20474;-84
2023/02/12 18:07:20;;;;;;;10.20;6.70;;;9.50;1.00;;;;;;6342832;22;20389;-86
2023/02/12 18:10:07;;;;;;;7.30;4.20;;;9.50;1.00;;;;;;6209347;22;20502;-83
2023/02/12 18:12:41;;;;;;;8.87;5.50;;;9.50;1.00;;;;;;6192998;22;20397;-83
2023/02/12 18:15:10;;;;;;;9.57;5.77;;;9.50;1.00;;;;;;6304890;22;20417;-83
2023/02/12 18:17:51;;;;;;;9.47;6.10;;;9.40;1.00;;;;;;6194634;22;20410;-83
2023/02/12 18:20:19;;;;;;;9.77;5.63;;;9.40;1.00;;;;;;6337305;22;20421;-85
2023/02/12 18:22:51;;;;;;;10.47;5.83;;;9.30;1.00;;;;;;6258073;22;20396;-85
2023/02/12 18:25:28;;;;;;;10.00;6.23;;;9.10;1.00;;;;;;6227385;22;21150;-84
2023/02/12 18:28:01;;;;;;;10.70;5.80;;;9.10;1.00;;;;;;6201931;22;20389;-85
2023/02/12 18:30:41;;;;;;;;;;;;;;;;;;;;;
2023/02/12 18:33:28;;;;;;;10.03;5.80;;;9.00;1.00;;;;;;6181595;23;50498;-83
2023/02/12 18:36:39;;;;;;;9.93;5.97;;;9.00;1.00;;;;;;6161464;22;20377;-85
2023/02/12 18:58:21;;;;;;;14.70;9.07;;;9.20;1.00;;;;;;6252575;22;20935;-84
2023/02/12 19:01:01;;;;;;;13.03;9.20;;;9.10;1.00;;;;;;6224251;22;20519;-84
2023/02/12 19:03:50;;;;;;;;;;;;;;;;;;;;;
2023/02/12 19:06:20;;;;;;;12.70;8.00;;;9.10;1.00;;;;;;6188749;22;50269;-86
2023/02/12 19:09:22;;;;;;;;;;;;;;;;;;;;;
2023/02/12 19:59:44;;;;;;;16.03;10.40;;;9.00;1.00;;;;;;5977897;23;20465;-81
2023/02/12 20:02:40;;;;;;;17.63;9.97;;;9.00;1.00;;;;;;6006657;23;20942;-82
2023/02/12 20:05:51;;;;;;;11.47;9.07;;;9.00;1.00;;;;;;6025297;23;20475;-82
2023/02/12 20:08:29;;;;;;;11.77;9.00;;;9.00;1.00;;;;;;5906176;24;20929;-81
2023/02/12 20:11:20;;;;;;;14.10;10.10;;;9.10;1.00;;;;;;5990374;23;20480;-80
2023/02/12 20:13:50;;;;;;;14.23;10.50;;;9.10;1.00;;;;;;6064174;23;20472;-84
2023/02/12 20:16:32;;;;;;;15.00;10.43;;;9.10;1.00;;;;;;6143207;23;20395;-82
2023/02/12 20:19:09;;;;;;;13.50;11.30;;;9.10;1.00;;;;;;6116742;23;20926;-82
2023/02/12 20:22:03;;;;;;;;;;;;;;;;;;;;;
2023/02/12 20:30:51;;;;;;;12.43;10.40;;;8.90;1.00;;;;;;6078554;23;20421;-84
2023/02/12 20:33:49;;;;;;;16.80;9.90;;;8.90;1.00;;;;;;6191578;22;20916;-82
2023/02/12 20:36:54;;;;;;;;;;;;;;;;;;;;;
2023/02/12 20:39:28;;;;;;;14.07;11.20;;;8.70;1.00;;;;;;6210944;22;50524;-82
2023/02/12 20:42:11;;;;;;;15.83;11.63;;;8.70;1.00;;;;;;6235475;22;20428;-83
2023/02/12 20:47:49;;;;;;;14.93;10.57;;;8.80;1.00;;;;;;6202835;22;20398;-85
2023/02/12 20:50:49;;;;;;;14.30;10.40;;;8.70;1.00;;;;;;6227924;22;20458;-83
2023/02/12 20:54:09;;;;;;;16.45;12.35;;;8.70;1.00;;;;;;6255164;22;20561;-84
2023/02/12 20:56:48;;;;;;;12.67;10.70;;;8.80;1.00;;;;;;6193372;22;20532;-81
2023/02/12 21:00:19;;;;;;;;;;;;;;;;;;;;;
2023/02/12 21:13:18;;;;;;;16.03;12.10;;;8.70;1.00;;;;;;6112833;23;20406;-82
2023/02/12 21:19:38;;;;;;;25.90;17.40;;;8.70;1.00;;;;;;6088461;22;20611;-82
2023/02/12 21:22:20;;;;;;;20.10;14.23;;;8.70;1.00;;;;;;6220911;23;20421;-82
2023/02/12 21:24:51;;;;;;;15.77;12.13;;;8.70;1.00;;;;;;6222146;23;20445;-87
2023/02/12 21:27:29;;;;;;;19.65;13.77;;;8.70;1.00;;;;;;6217094;22;20476;-82